createdAt,value
2018-06-30T00:01:46.449Z,18.00
2018-06-30T00:04:14.974Z,18.00
2018-06-30T00:06:43.485Z,18.00
2018-06-30T00:09:12.061Z,18.00
2018-06-30T00:11:40.603Z,18.00
2018-06-30T00:14:09.120Z,18.00
2018-06-30T00:16:37.638Z,18.00
2018-06-30T00:19:07.136Z,18.00
2018-06-30T00:24:03.829Z,17.90
2018-06-30T00:26:32.357Z,17.90
2018-06-30T00:29:00.892Z,18.00
2018-06-30T00:31:29.963Z,18.00
2018-06-30T00:33:58.486Z,18.00
2018-06-30T00:36:26.993Z,18.00
2018-06-30T00:38:55.705Z,17.90
2018-06-30T00:41:24.214Z,17.90
2018-06-30T00:43:52.741Z,17.90
2018-06-30T00:46:21.246Z,17.90
2018-06-30T00:48:49.745Z,17.80
2018-06-30T00:51:18.597Z,17.90
2018-06-30T00:53:48.133Z,17.90
2018-06-30T00:58:44.877Z,17.80
2018-06-30T01:01:13.451Z,17.80
2018-06-30T01:03:41.945Z,17.80
2018-06-30T01:06:10.504Z,17.80
2018-06-30T01:08:39.713Z,17.80
2018-06-30T01:16:05.415Z,17.80
2018-06-30T01:18:33.940Z,17.80
2018-06-30T01:21:02.460Z,17.80
2018-06-30T01:23:31.118Z,17.70
2018-06-30T01:25:59.641Z,17.70
2018-06-30T01:28:28.153Z,17.70
2018-06-30T01:30:56.670Z,17.70
2018-06-30T01:33:25.162Z,17.60
2018-06-30T01:35:53.647Z,17.60
2018-06-30T01:38:29.090Z,17.60
2018-06-30T01:40:57.645Z,17.60
2018-06-30T01:43:26.269Z,17.60
2018-06-30T01:45:54.815Z,17.60
2018-06-30T01:48:23.361Z,17.50
2018-06-30T01:50:51.842Z,17.60
2018-06-30T01:53:20.356Z,17.60
2018-06-30T01:55:48.889Z,17.60
2018-06-30T01:58:17.469Z,17.50
2018-06-30T02:00:46.171Z,17.60
2018-06-30T02:05:43.381Z,17.60
2018-06-30T02:08:11.879Z,17.50
2018-06-30T02:10:40.426Z,17.50
2018-06-30T02:13:08.937Z,17.50
2018-06-30T02:15:37.443Z,17.50
2018-06-30T02:18:05.962Z,17.50
2018-06-30T02:20:34.446Z,17.50
2018-06-30T02:23:03.090Z,17.50
2018-06-30T02:25:32.458Z,17.50
2018-06-30T02:28:01.094Z,17.40
2018-06-30T02:30:29.632Z,17.40
2018-06-30T02:32:58.178Z,17.50
2018-06-30T02:35:26.966Z,17.50
2018-06-30T02:37:55.518Z,17.40
2018-06-30T02:40:24.313Z,17.50
2018-06-30T02:42:52.901Z,17.40
2018-06-30T02:45:21.502Z,17.40
2018-06-30T02:47:50.026Z,17.40
2018-06-30T02:50:18.534Z,17.30
2018-06-30T02:52:47.054Z,17.30
2018-06-30T02:57:43.776Z,17.20
2018-06-30T03:00:13.751Z,17.20
2018-06-30T03:02:42.406Z,17.20
2018-06-30T03:05:10.950Z,17.30
2018-06-30T03:07:39.482Z,17.30
2018-06-30T03:12:36.162Z,17.30
2018-06-30T03:15:04.783Z,17.30
2018-06-30T03:17:33.226Z,17.30
2018-06-30T03:20:01.674Z,17.30
2018-06-30T03:22:30.257Z,17.20
2018-06-30T03:24:58.739Z,17.20
2018-06-30T03:27:27.209Z,17.20
2018-06-30T03:29:55.721Z,17.20
2018-06-30T03:32:25.382Z,17.20
2018-06-30T03:34:53.993Z,17.20
2018-06-30T03:37:22.489Z,17.20
2018-06-30T03:39:50.946Z,17.30
2018-06-30T03:42:19.509Z,17.30
2018-06-30T03:44:48.144Z,17.30
2018-06-30T03:49:45.116Z,17.40
2018-06-30T03:54:42.088Z,17.50
2018-06-30T04:02:08.106Z,17.50
2018-06-30T04:04:36.614Z,17.50
2018-06-30T04:07:05.227Z,17.60
2018-06-30T04:09:33.758Z,17.60
2018-06-30T04:12:02.280Z,17.60
2018-06-30T04:14:30.995Z,17.60
2018-06-30T04:16:59.490Z,17.60
2018-06-30T04:19:28.001Z,17.60
2018-06-30T04:21:56.856Z,17.70
2018-06-30T04:24:25.330Z,17.80
2018-06-30T04:26:53.835Z,17.90
2018-06-30T04:29:22.337Z,18.10
2018-06-30T04:31:50.854Z,18.30
2018-06-30T04:36:47.551Z,21.00
2018-06-30T04:39:16.045Z,23.20
2018-06-30T04:41:44.615Z,24.60
2018-06-30T04:44:13.084Z,25.60
2018-06-30T04:46:41.594Z,26.10
2018-06-30T04:49:10.522Z,26.60
2018-06-30T04:54:07.569Z,27.00
2018-06-30T04:56:36.254Z,26.50
2018-06-30T04:59:04.915Z,26.10
2018-06-30T05:01:33.543Z,26.50
2018-06-30T05:04:32.222Z,26.30
2018-06-30T05:07:00.803Z,26.30
2018-06-30T05:09:29.649Z,26.90
2018-06-30T05:11:58.542Z,26.80
2018-06-30T05:14:27.239Z,27.30
2018-06-30T05:16:55.800Z,27.40
2018-06-30T05:19:24.288Z,27.90
2018-06-30T05:21:53.137Z,28.10
2018-06-30T05:24:21.648Z,28.30
2018-06-30T05:26:50.282Z,28.60
2018-06-30T05:29:18.838Z,29.00
2018-06-30T05:31:47.353Z,29.70
2018-06-30T05:34:16.025Z,30.10
2018-06-30T05:36:44.500Z,29.80
2018-06-30T05:39:12.954Z,30.00
2018-06-30T05:44:09.558Z,30.40
2018-06-30T05:46:38.010Z,30.70
2018-06-30T05:49:06.485Z,31.50
2018-06-30T05:51:34.984Z,31.70
2018-06-30T05:54:03.499Z,31.70
2018-06-30T05:56:31.966Z,32.20
2018-06-30T05:59:00.413Z,31.80
2018-06-30T06:01:28.914Z,32.10
2018-06-30T06:03:57.377Z,32.20
2018-06-30T06:08:54.049Z,32.30
2018-06-30T06:11:22.527Z,32.90
2018-06-30T06:13:50.973Z,32.50
2018-06-30T06:16:19.654Z,31.80
2018-06-30T06:18:48.102Z,31.90
2018-06-30T06:21:16.663Z,31.90
2018-06-30T06:23:45.515Z,31.50
2018-06-30T06:28:42.414Z,31.30
2018-06-30T06:31:10.945Z,31.40
2018-06-30T06:33:47.728Z,31.40
2018-06-30T06:36:16.289Z,31.00
2018-06-30T06:38:44.767Z,30.00
2018-06-30T06:41:13.527Z,28.80
2018-06-30T06:43:42.281Z,27.50
2018-06-30T06:46:10.829Z,26.40
2018-06-30T06:48:39.674Z,25.60
2018-06-30T06:56:04.449Z,24.90
2018-06-30T06:58:33.391Z,24.60
2018-06-30T07:01:01.958Z,24.30
2018-06-30T07:03:30.433Z,23.90
2018-06-30T07:05:58.918Z,23.50
2018-06-30T07:08:27.466Z,23.20
2018-06-30T07:10:55.895Z,23.20
2018-06-30T07:13:24.406Z,23.00
2018-06-30T07:15:52.878Z,23.10
2018-06-30T07:18:21.603Z,23.10
2018-06-30T07:20:50.449Z,23.00
2018-06-30T07:25:47.142Z,22.90
2018-06-30T07:28:15.706Z,23.10
2018-06-30T07:33:12.333Z,23.00
2018-06-30T07:35:41.482Z,22.80
2018-06-30T07:38:09.967Z,22.80
2018-06-30T07:40:38.391Z,22.90
2018-06-30T07:43:06.913Z,22.90
2018-06-30T07:45:35.364Z,22.90
2018-06-30T07:48:28.947Z,23.00
2018-06-30T07:53:29.706Z,22.90
2018-06-30T07:58:26.330Z,22.80
2018-06-30T08:00:54.816Z,22.80
2018-06-30T08:03:24.257Z,22.90
2018-06-30T08:05:53.078Z,22.90
2018-06-30T08:08:21.557Z,22.90
2018-06-30T08:10:50.110Z,22.90
2018-06-30T08:13:18.611Z,23.00
2018-06-30T08:15:47.101Z,23.00
2018-06-30T08:18:15.618Z,23.00
2018-06-30T08:20:44.426Z,22.90
2018-06-30T08:25:41.469Z,22.90
2018-06-30T08:28:10.107Z,22.90
2018-06-30T08:30:38.627Z,23.00
2018-06-30T08:33:07.176Z,23.10
2018-06-30T08:35:35.718Z,23.10
2018-06-30T08:38:04.936Z,23.20
2018-06-30T08:40:33.391Z,23.30
2018-06-30T08:43:01.873Z,23.40
2018-06-30T08:45:31.324Z,23.40
2018-06-30T08:47:59.870Z,23.30
2018-06-30T08:50:28.421Z,23.20
2018-06-30T08:52:57.005Z,23.50
2018-06-30T08:55:27.322Z,23.50
2018-06-30T08:57:55.851Z,23.40
2018-06-30T09:00:24.476Z,23.30
2018-06-30T09:02:54.173Z,23.30
2018-06-30T09:05:22.796Z,23.40
2018-06-30T09:07:51.373Z,23.50
2018-06-30T09:10:20.616Z,23.70
2018-06-30T09:17:45.514Z,23.70
2018-06-30T09:20:14.010Z,23.80
2018-06-30T09:22:42.930Z,23.90
2018-06-30T09:27:43.790Z,23.90
2018-06-30T09:30:13.422Z,24.00
2018-06-30T09:32:44.541Z,24.10
2018-06-30T09:37:42.113Z,24.00
2018-06-30T09:40:10.870Z,24.10
2018-06-30T09:42:40.242Z,24.00
2018-06-30T09:45:08.964Z,24.00
2018-06-30T09:47:37.534Z,24.00
2018-06-30T09:50:06.030Z,24.00
2018-06-30T09:52:34.527Z,24.20
2018-06-30T09:55:03.098Z,24.20
2018-06-30T09:57:32.109Z,24.10
2018-06-30T10:00:00.731Z,24.10
2018-06-30T10:02:29.205Z,24.20
2018-06-30T10:07:25.912Z,24.30
2018-06-30T10:10:05.558Z,24.40
2018-06-30T10:12:34.300Z,24.40
2018-06-30T10:15:11.203Z,24.40
2018-06-30T10:17:42.939Z,24.50
2018-06-30T10:20:11.946Z,24.50
2018-06-30T10:22:40.663Z,24.40
2018-06-30T10:25:09.168Z,24.50
2018-06-30T10:27:38.859Z,24.50
2018-06-30T10:30:08.238Z,24.50
2018-06-30T10:32:36.827Z,24.70
2018-06-30T10:35:05.351Z,24.60
2018-06-30T10:37:33.960Z,24.60
2018-06-30T10:40:02.508Z,24.70
2018-06-30T10:42:31.062Z,24.80
2018-06-30T10:44:59.590Z,24.70
2018-06-30T10:47:28.089Z,24.70
2018-06-30T10:49:59.988Z,24.80
2018-06-30T10:52:28.509Z,25.00
2018-06-30T10:55:02.827Z,24.90
2018-06-30T10:57:31.471Z,25.00
2018-06-30T11:00:00.101Z,25.00
2018-06-30T11:02:28.682Z,25.20
2018-06-30T11:04:57.183Z,25.20
2018-06-30T11:07:27.116Z,25.30
2018-06-30T11:09:55.865Z,25.40
2018-06-30T11:12:25.743Z,25.50
2018-06-30T11:14:55.020Z,25.70
2018-06-30T11:19:52.271Z,25.70
2018-06-30T11:22:20.978Z,25.70
2018-06-30T11:24:50.611Z,26.00
2018-06-30T11:27:19.263Z,26.00
2018-06-30T11:29:48.322Z,25.80
2018-06-30T11:32:18.714Z,25.90
2018-06-30T11:34:47.935Z,25.80
2018-06-30T11:37:16.606Z,26.00
2018-06-30T11:39:45.513Z,26.00
2018-06-30T11:42:15.001Z,26.10
2018-06-30T11:44:43.867Z,26.00
2018-06-30T11:47:13.717Z,25.90
2018-06-30T11:49:42.948Z,26.00
2018-06-30T11:52:11.519Z,25.90
2018-06-30T11:54:40.000Z,25.80
2018-06-30T11:57:09.526Z,25.90
2018-06-30T11:59:38.212Z,25.90
2018-06-30T12:02:06.856Z,26.10
2018-06-30T12:04:35.369Z,26.20
2018-06-30T12:07:03.930Z,26.10
2018-06-30T12:09:32.660Z,26.10
2018-06-30T12:12:01.259Z,25.90
2018-06-30T12:14:31.284Z,26.00
2018-06-30T12:16:59.827Z,25.90
2018-06-30T12:19:37.259Z,25.70
2018-06-30T12:22:05.978Z,25.70
2018-06-30T12:24:35.658Z,25.90
2018-06-30T12:27:04.325Z,26.00
2018-06-30T12:29:34.634Z,26.20
2018-06-30T12:32:03.298Z,26.30
2018-06-30T12:34:31.992Z,26.30
2018-06-30T12:37:01.301Z,26.20
2018-06-30T12:39:30.048Z,26.10
2018-06-30T12:41:58.754Z,25.90
2018-06-30T12:44:27.429Z,26.00
2018-06-30T12:46:56.803Z,26.10
2018-06-30T12:51:53.797Z,26.40
2018-06-30T12:54:23.424Z,26.20
2018-06-30T12:56:52.107Z,26.20
2018-06-30T12:59:20.847Z,26.30
2018-06-30T13:01:49.374Z,26.40
2018-06-30T13:04:19.127Z,26.60
2018-06-30T13:06:48.936Z,26.60
2018-06-30T13:09:18.786Z,26.50
2018-06-30T13:11:48.663Z,26.40
2018-06-30T13:14:18.600Z,26.50
2018-06-30T13:16:48.494Z,26.60
2018-06-30T13:19:18.813Z,26.90
2018-06-30T13:21:47.944Z,27.00
2018-06-30T13:24:17.266Z,27.00
2018-06-30T13:26:46.833Z,27.00
2018-06-30T13:29:23.404Z,27.00
2018-06-30T13:31:52.450Z,26.90
2018-06-30T13:34:27.404Z,26.80
2018-06-30T13:36:57.837Z,26.80
2018-06-30T13:39:30.859Z,27.00
2018-06-30T13:42:00.447Z,27.00
2018-06-30T13:44:29.933Z,27.10
2018-06-30T13:47:00.974Z,27.20
2018-06-30T13:49:29.927Z,27.40
2018-06-30T13:52:02.983Z,27.60
2018-06-30T13:54:32.180Z,27.80
2018-06-30T14:01:58.279Z,27.10
2018-06-30T14:06:56.118Z,27.40
2018-06-30T14:09:24.990Z,27.40
2018-06-30T14:11:53.773Z,27.40
2018-06-30T14:14:26.520Z,27.50
2018-06-30T14:19:25.052Z,27.50
2018-06-30T14:21:53.647Z,27.50
2018-06-30T14:24:22.267Z,27.30
2018-06-30T14:26:50.891Z,27.40
2018-06-30T14:29:20.450Z,27.40
2018-06-30T14:31:49.076Z,27.60
2018-06-30T14:34:17.743Z,27.60
2018-06-30T14:36:46.368Z,27.60
2018-06-30T14:39:15.043Z,27.60
2018-06-30T14:44:11.927Z,27.20
2018-06-30T14:46:40.460Z,27.30
2018-06-30T14:49:09.027Z,27.30
2018-06-30T14:51:37.710Z,27.40
2018-06-30T14:54:06.252Z,27.50
2018-06-30T14:56:34.875Z,27.50
2018-06-30T14:59:03.485Z,27.70
2018-06-30T15:01:32.004Z,27.30
2018-06-30T15:04:00.515Z,27.30
2018-06-30T15:06:29.033Z,27.30
2018-06-30T15:08:57.826Z,27.20
2018-06-30T15:11:26.375Z,26.90
2018-06-30T15:13:55.045Z,26.60
2018-06-30T15:16:24.575Z,26.30
2018-06-30T15:18:53.385Z,26.20
2018-06-30T15:21:22.502Z,26.30
2018-06-30T15:23:51.159Z,26.50
2018-06-30T15:26:19.955Z,26.70
2018-06-30T15:28:51.116Z,26.90
2018-06-30T15:31:22.357Z,27.00
2018-06-30T15:33:51.231Z,27.00
2018-06-30T15:36:20.625Z,26.80
2018-06-30T15:38:51.677Z,26.80
2018-06-30T15:41:20.722Z,26.80
2018-06-30T15:43:50.462Z,26.70
2018-06-30T15:46:19.371Z,26.70
2018-06-30T15:48:50.125Z,26.70
2018-06-30T15:51:22.255Z,26.80
2018-06-30T15:53:52.019Z,26.90
2018-06-30T15:56:22.607Z,26.90
2018-06-30T15:58:52.561Z,26.70
2018-06-30T16:01:21.839Z,26.70
2018-06-30T16:03:51.178Z,26.70
2018-06-30T16:06:20.008Z,26.60
2018-06-30T16:08:48.643Z,26.60
2018-06-30T16:11:17.240Z,26.60
2018-06-30T16:16:14.612Z,26.40
2018-06-30T16:21:12.885Z,26.30
2018-06-30T16:23:41.982Z,26.30
2018-06-30T16:26:10.871Z,26.40
2018-06-30T16:28:40.457Z,26.40
2018-06-30T16:31:09.281Z,26.30
2018-06-30T16:33:38.248Z,26.20
2018-06-30T16:36:06.868Z,26.20
2018-06-30T16:38:35.994Z,26.00
2018-06-30T16:41:04.989Z,25.90
2018-06-30T16:43:33.803Z,25.90
2018-06-30T16:46:02.508Z,25.80
2018-06-30T16:48:31.120Z,25.80
2018-06-30T16:51:00.034Z,25.80
2018-06-30T16:53:28.641Z,25.80
2018-06-30T16:55:57.360Z,25.80
2018-06-30T16:58:38.452Z,25.90
2018-06-30T17:01:07.836Z,25.80
2018-06-30T17:03:36.555Z,25.80
2018-06-30T17:06:05.323Z,25.80
2018-06-30T17:08:33.977Z,25.70
2018-06-30T17:11:04.133Z,25.70
2018-06-30T17:13:32.712Z,25.70
2018-06-30T17:16:02.139Z,25.70
2018-06-30T17:20:59.748Z,25.60
2018-06-30T17:23:29.515Z,25.60
2018-06-30T17:26:01.161Z,25.50
2018-06-30T17:28:31.000Z,25.50
2018-06-30T17:33:28.171Z,25.40
2018-06-30T17:35:56.882Z,25.40
2018-06-30T17:38:25.832Z,25.40
2018-06-30T17:40:54.834Z,25.30
2018-06-30T17:43:23.776Z,25.30
2018-06-30T17:45:52.554Z,25.30
2018-06-30T17:48:21.863Z,25.20
2018-06-30T17:50:50.488Z,25.20
2018-06-30T17:53:19.193Z,25.10
2018-06-30T17:55:49.706Z,25.00
2018-06-30T17:58:18.359Z,25.00
2018-06-30T18:00:47.350Z,24.90
2018-06-30T18:03:15.958Z,24.80
2018-06-30T18:05:44.723Z,24.70
2018-06-30T18:08:13.350Z,24.70
2018-06-30T18:10:41.999Z,24.70
2018-06-30T18:13:10.555Z,24.60
2018-06-30T18:18:09.340Z,24.50
2018-06-30T18:20:48.006Z,24.40
2018-06-30T18:23:16.602Z,24.30
2018-06-30T18:25:45.118Z,24.30
2018-06-30T18:28:13.868Z,24.20
2018-06-30T18:30:42.521Z,24.20
2018-06-30T18:33:11.081Z,24.10
2018-06-30T18:35:40.735Z,24.00
2018-06-30T18:38:10.749Z,24.00
2018-06-30T18:40:39.450Z,23.90
2018-06-30T18:43:08.186Z,23.80
2018-06-30T18:45:36.846Z,23.70
2018-06-30T18:48:05.581Z,23.60
2018-06-30T18:53:04.046Z,23.50
2018-06-30T18:55:32.780Z,23.40
2018-06-30T19:02:58.097Z,23.20
2018-06-30T19:05:26.852Z,23.10
2018-06-30T19:07:55.788Z,23.10
2018-06-30T19:10:24.507Z,23.00
2018-06-30T19:12:53.119Z,22.90
2018-06-30T19:15:21.932Z,22.90
2018-06-30T19:17:50.647Z,22.90
2018-06-30T19:25:16.161Z,22.70
2018-06-30T19:27:44.890Z,22.60
2018-06-30T19:35:10.544Z,22.40
2018-06-30T19:37:39.253Z,22.30
2018-06-30T19:40:07.929Z,22.20
2018-06-30T19:42:36.783Z,22.10
2018-06-30T19:45:05.629Z,22.10
2018-06-30T19:47:34.717Z,22.00
2018-06-30T19:50:03.739Z,21.90
2018-06-30T19:52:32.633Z,21.90
2018-06-30T19:55:01.541Z,21.80
2018-06-30T19:57:30.613Z,21.70
2018-06-30T19:59:59.481Z,21.70
2018-06-30T20:02:28.417Z,21.70
2018-06-30T20:04:57.903Z,21.70
2018-06-30T20:07:26.699Z,21.60
2018-06-30T20:09:55.677Z,21.50
2018-06-30T20:12:24.986Z,21.50
2018-06-30T20:14:53.893Z,21.40
2018-06-30T20:17:22.862Z,21.40
2018-06-30T20:19:51.674Z,21.30
2018-06-30T20:22:20.628Z,21.20
2018-06-30T20:24:49.500Z,21.10
2018-06-30T20:27:18.491Z,21.10
2018-06-30T20:29:47.259Z,21.10
2018-06-30T20:32:16.612Z,21.00
2018-06-30T20:34:45.906Z,20.90
2018-06-30T20:37:14.924Z,20.90
2018-06-30T20:39:43.732Z,20.80
2018-06-30T20:42:13.068Z,20.80
2018-06-30T20:44:41.947Z,20.70
2018-06-30T20:47:12.057Z,20.60
2018-06-30T20:49:44.277Z,20.60
2018-06-30T20:52:13.262Z,20.50
2018-06-30T20:54:42.085Z,20.50
2018-06-30T20:57:11.143Z,20.50
2018-06-30T20:59:43.174Z,20.40
2018-06-30T21:02:12.141Z,20.30
2018-06-30T21:04:41.323Z,20.30
2018-06-30T21:07:10.337Z,20.20
2018-06-30T21:09:39.231Z,20.20
2018-06-30T21:12:08.402Z,20.10
2018-06-30T21:14:37.270Z,20.10
2018-06-30T21:17:07.312Z,20.00
2018-06-30T21:19:36.274Z,20.00
2018-06-30T21:22:05.158Z,20.00
2018-06-30T21:27:02.956Z,19.90
2018-06-30T21:29:32.037Z,19.80
2018-06-30T21:32:01.059Z,19.70
2018-06-30T21:34:30.082Z,19.70
2018-06-30T21:36:59.070Z,19.60
2018-06-30T21:39:27.941Z,19.60
2018-06-30T21:41:56.585Z,19.50
2018-06-30T21:44:25.729Z,19.60
2018-06-30T21:46:54.632Z,19.70
2018-06-30T21:49:23.389Z,19.70
2018-06-30T21:51:52.264Z,19.70
2018-06-30T21:54:21.441Z,19.70
2018-06-30T21:56:50.404Z,19.70
2018-06-30T21:59:20.464Z,19.60
2018-06-30T22:01:49.661Z,19.60
2018-06-30T22:04:18.446Z,19.60
2018-06-30T22:06:47.636Z,19.60
2018-06-30T22:09:16.462Z,19.60
2018-06-30T22:11:45.887Z,19.60
2018-06-30T22:14:14.604Z,19.50
2018-06-30T22:16:43.365Z,19.50
2018-06-30T22:19:12.078Z,19.40
2018-06-30T22:21:40.777Z,19.30
2018-06-30T22:24:09.552Z,19.20
2018-06-30T22:26:38.344Z,19.20
2018-06-30T22:29:07.099Z,19.10
2018-06-30T22:34:03.871Z,19.00
2018-06-30T22:36:32.501Z,19.00
2018-06-30T22:39:01.149Z,19.00
2018-06-30T22:41:29.756Z,19.00
2018-06-30T22:43:58.385Z,18.90
2018-06-30T22:46:26.961Z,18.80
2018-06-30T22:48:55.543Z,18.80
2018-06-30T22:51:24.707Z,18.80
2018-06-30T22:53:53.212Z,18.70
2018-06-30T22:56:21.715Z,18.70
2018-06-30T22:58:50.232Z,18.60
2018-06-30T23:01:18.722Z,18.60
2018-06-30T23:03:47.299Z,18.60
2018-06-30T23:06:15.779Z,18.50
2018-06-30T23:08:49.815Z,18.50
2018-06-30T23:11:18.331Z,18.40
2018-06-30T23:13:46.836Z,18.40
2018-06-30T23:18:43.543Z,18.40
2018-06-30T23:21:12.088Z,18.40
2018-06-30T23:23:40.715Z,18.30
2018-06-30T23:26:09.299Z,18.30
2018-06-30T23:28:37.864Z,18.30
2018-06-30T23:31:06.379Z,18.30
2018-06-30T23:33:34.851Z,18.30
2018-06-30T23:36:03.423Z,18.30
2018-06-30T23:38:32.049Z,18.20
2018-06-30T23:41:00.685Z,18.20
2018-06-30T23:43:29.218Z,18.20
2018-06-30T23:45:57.730Z,18.10
2018-06-30T23:50:54.346Z,18.00
2018-06-30T23:53:23.084Z,17.90
2018-06-30T23:55:51.648Z,17.90
2018-06-30T23:58:20.181Z,17.90
